Weather at Coldstream Airport

Public forecast

Using degrees Celsius for public forecast. Weather courtesy of forecast.io.

Closest aviation weather report (METAR) to Coldstream Airport

Closest report is Melbourne International Airport, 27.1 nm (50.1 km) W.

2024/07/20 05:22 (retrieved 17 minutes ago)

YMML 200522Z 25019KT 8000 -SHRA FEW017 SCT022 BKN036 11/09 Q1003

Closest aviation forecast (TAF) to Coldstream Airport

Forecast is more than 12 hours old.

Closest forecast is Queenstown International Airport, 1,133.6 nm (2,099.4 km) ESE.

2024/07/19 05:00 Ammendment (retrieved 1 day ago)

AMD NZQN 190505Z 1905/1912 04005KT 9999 SKC